Time;durP1;ratioP1;P1;durP2;ratioP2;P2;SDS_P1;SDS_P2;PMS_P1;PMS_P2;Temp;Humidity;BMP_temperature;BMP_pressure;BME280_temperature;BME280_humidity;BME280_pressure;Samples;Min_cycle;Max_cycle;Signal;HPM_P1;HPM_P2
2023/03/17 00:01:25;;;;;;;;;;;;;;;-144.98;100.00;62585.19;4960918;28;19941;-73
2023/03/17 00:04:28;;;;;;;;;;;;;;;-144.98;100.00;62585.19;4961006;28;20009;-73
2023/03/17 00:07:31;;;;;;;;;;;;;;;-144.98;100.00;62585.19;4960760;29;19974;-73
2023/03/17 00:10:35;;;;;;;;;;;;;;;-144.98;100.00;62585.19;4960631;29;19925;-73
2023/03/17 00:13:38;;;;;;;;;;;;;;;-144.98;100.00;62585.19;4945541;29;19928;-73
2023/03/17 00:16:48;;;;;;;;;;;;;;;-144.98;100.00;62585.19;4960700;28;19925;-73
2023/03/17 00:19:52;;;;;;;;;;;;;;;-144.98;100.00;62585.19;4960629;29;19925;-73
2023/03/17 00:22:58;;;;;;;;;;;;;;;-144.98;100.00;62585.19;4960742;28;19926;-73
2023/03/17 00:26:01;;;;;;;;;;;;;;;-144.98;100.00;62585.19;4960638;29;19928;-73
2023/03/17 00:29:04;;;;;;;;;;;;;;;-144.98;100.00;62585.19;4960602;28;20302;-72
2023/03/17 00:32:26;;;;;;;;;;;;;;;-144.98;100.00;62585.19;4937698;29;20297;-74
2023/03/17 00:35:31;;;;;;;;;;;;;;;-144.98;100.00;62585.19;4956009;28;19925;-73
2023/03/17 00:38:34;;;;;;;;;;;;;;;-144.98;100.00;62585.19;4960807;29;20058;-73
2023/03/17 00:41:37;;;;;;;;;;;;;;;-144.98;100.00;62585.19;4960426;29;20017;-73
2023/03/17 00:44:42;;;;;;;;;;;;;;;-144.98;100.00;62585.19;4959799;29;19974;-73
2023/03/17 00:47:46;;;;;;;;;;;;;;;-144.98;100.00;62585.19;4948470;29;19938;-72
2023/03/17 00:50:49;;;;;;;;;;;;;;;-144.98;100.00;62585.19;4960150;28;20413;-73
2023/03/17 00:53:52;;;;;;;;;;;;;;;-144.98;100.00;62585.19;4960392;28;20294;-73
2023/03/17 00:56:56;;;;;;;;;;;;;;;-144.98;100.00;62585.19;4960632;29;19925;-73
2023/03/17 00:59:58;;;;;;;;;;;;;;;-144.98;100.00;62585.19;4960274;28;19976;-73
2023/03/17 01:03:03;;;;;;;;;;;;;;;-144.98;100.00;62585.19;4957449;28;19926;-73
2023/03/17 01:06:09;;;;;;;;;;;;;;;-144.98;100.00;62585.19;4957312;29;20343;-73
2023/03/17 01:09:17;;;;;;;;;;;;;;;-144.98;100.00;62585.19;4945246;29;19970;-73
2023/03/17 01:12:20;;;;;;;;;;;;;;;-144.98;100.00;62585.19;4957250;29;20456;-74
2023/03/17 01:15:27;;;;;;;;;;;;;;;-144.98;100.00;62585.19;4957178;29;19933;-72
2023/03/17 01:18:31;;;;;;;;;;;;;;;-144.98;100.00;62585.19;4957047;29;19966;-72
2023/03/17 01:21:34;;;;;;;;;;;;;;;-144.98;100.00;62585.19;4957028;29;19929;-73
2023/03/17 01:24:38;;;;;;;;;;;;;;;-144.98;100.00;62585.19;4956950;29;19946;-73
2023/03/17 01:27:42;;;;;;;;;;;;;;;-144.98;100.00;62585.19;4944744;29;19944;-74
2023/03/17 01:30:48;;;;;;;;;;;;;;;-144.98;100.00;62585.19;4945028;29;20403;-73
2023/03/17 01:33:51;;;;;;;;;;;;;;;-144.98;100.00;62585.19;4956855;29;19930;-74
2023/03/17 01:36:54;;;;;;;;;;;;;;;-144.98;100.00;62585.19;4956868;29;19925;-74
2023/03/17 01:39:58;;;;;;;;;;;;;;;-144.98;100.00;62585.19;4956711;29;19929;-74
2023/03/17 01:43:16;;;;;;;;;;;;;;;-144.98;100.00;62585.19;4956599;29;19973;-74
2023/03/17 01:46:31;;;;;;;;;;;;;;;-144.98;100.00;62585.19;4944816;29;19973;-74
2023/03/17 01:49:36;;;;;;;;;;;;;;;-144.98;100.00;62585.19;4944679;29;19950;-73
2023/03/17 01:52:39;;;;;;;;;;;;;;;-144.98;100.00;62585.19;4956365;29;20462;-74
2023/03/17 01:55:44;;;;;;;;;;;;;;;-144.98;100.00;62585.19;4944418;29;20065;-74
2023/03/17 01:58:50;;;;;;;;;;;;;;;-144.98;100.00;62585.19;4944545;29;20006;-74
2023/03/17 02:01:56;;;;;;;;;;;;;;;-144.98;100.00;62585.19;4956512;29;20290;-72
2023/03/17 02:05:00;;;;;;;;;;;;;;;-144.98;100.00;62585.19;4955366;29;19933;-73
2023/03/17 02:08:07;;;;;;;;;;;;;;;-144.98;100.00;62585.19;4944121;29;19929;-73
2023/03/17 02:11:10;;;;;;;;;;;;;;;-144.98;100.00;62585.19;4940393;29;19925;-74
2023/03/17 02:14:15;;;;;;;;;;;;;;;-144.98;100.00;62585.19;4943863;28;19940;-74
2023/03/17 02:17:20;;;;;;;;;;;;;;;-144.98;100.00;62585.19;4956014;29;20331;-73
2023/03/17 02:20:24;;;;;;;;;;;;;;;-144.98;100.00;62585.19;4943878;29;19925;-73
2023/03/17 02:23:27;;;;;;;;;;;;;;;-144.98;100.00;62585.19;4942338;29;19941;-73
2023/03/17 02:26:31;;;;;;;;;;;;;;;-144.98;100.00;62585.19;4943865;29;20299;-73
2023/03/17 02:29:36;;;;;;;;;;;;;;;-144.98;100.00;62585.19;4955763;29;20299;-73
2023/03/17 02:32:39;;;;;;;;;;;;;;;-144.98;100.00;62585.19;4955589;29;19966;-73
2023/03/17 02:35:43;;;;;;;;;;;;;;;-144.98;100.00;62585.19;4943637;29;19972;-73
2023/03/17 02:38:46;;;;;;;;;;;;;;;-144.98;100.00;62585.19;4955870;29;20415;-73
2023/03/17 02:41:50;;;;;;;;;;;;;;;-144.98;100.00;62585.19;4955659;29;20009;-74
2023/03/17 02:44:53;;;;;;;;;;;;;;;-144.98;100.00;62585.19;4943668;29;19964;-74
2023/03/17 02:47:57;;;;;;;;;;;;;;;-144.98;100.00;62585.19;4955314;29;19932;-72
2023/03/17 02:51:00;;;;;;;;;;;;;;;-144.98;100.00;62585.19;4955260;29;20405;-73
2023/03/17 02:54:03;;;;;;;;;;;;;;;-144.98;100.00;62585.19;4955338;29;19973;-73
2023/03/17 02:57:07;;;;;;;;;;;;;;;-144.98;100.00;62585.19;4955275;29;19926;-73
2023/03/17 03:00:12;;;;;;;;;;;;;;;-144.98;100.00;62585.19;4948542;29;19924;-73
2023/03/17 03:03:18;;;;;;;;;;;;;;;-144.98;100.00;62585.19;4955340;29;19925;-74
2023/03/17 03:06:25;;;;;;;;;;;;;;;-144.98;100.00;62585.19;4955488;29;20005;-73
2023/03/17 03:09:28;;;;;;;;;;;;;;;-144.98;100.00;62585.19;4955076;29;19933;-72
2023/03/17 03:12:32;;;;;;;;;;;;;;;-144.98;100.00;62585.19;4954991;29;20005;-73
2023/03/17 03:15:35;;;;;;;;;;;;;;;-144.98;100.00;62585.19;4955024;29;19973;-73
2023/03/17 03:18:38;;;;;;;;;;;;;;;-144.98;100.00;62585.19;4954938;29;19925;-73
2023/03/17 03:21:40;;;;;;;;;;;;;;;-144.98;100.00;62585.19;4954885;29;19925;-73
2023/03/17 03:24:44;;;;;;;;;;;;;;;-144.98;100.00;62585.19;4954703;29;19946;-73
2023/03/17 03:27:47;;;;;;;;;;;;;;;-144.98;100.00;62585.19;4954791;29;20054;-73
2023/03/17 03:30:50;;;;;;;;;;;;;;;-144.98;100.00;62585.19;4954673;29;20334;-73
2023/03/17 03:33:53;;;;;;;;;;;;;;;-144.98;100.00;62585.19;4954779;29;20025;-73
2023/03/17 03:36:56;;;;;;;;;;;;;;;-144.98;100.00;62585.19;4954572;29;19926;-73
2023/03/17 03:39:59;;;;;;;;;;;;;;;-144.98;100.00;62585.19;4954554;29;19925;-73
2023/03/17 03:43:02;;;;;;;;;;;;;;;-144.98;100.00;62585.19;4954982;29;20005;-72
2023/03/17 03:46:05;;;;;;;;;;;;;;;-144.98;100.00;62585.19;4954914;29;19930;-72
2023/03/17 03:49:08;;;;;;;;;;;;;;;-144.98;100.00;62585.19;4954520;29;19992;-72
2023/03/17 03:52:11;;;;;;;;;;;;;;;-144.98;100.00;62585.19;4947519;29;19944;-73
2023/03/17 03:55:15;;;;;;;;;;;;;;;-144.98;100.00;62585.19;4954635;29;20014;-72
2023/03/17 03:58:19;;;;;;;;;;;;;;;-144.98;100.00;62585.19;4954433;29;19924;-72
2023/03/17 04:01:22;;;;;;;;;;;;;;;-144.98;100.00;62585.19;4954539;29;19926;-72
2023/03/17 04:04:25;;;;;;;;;;;;;;;-144.98;100.00;62585.19;4954909;29;19972;-72
2023/03/17 04:07:28;;;;;;;;;;;;;;;-144.98;100.00;62585.19;4954540;29;19950;-72
2023/03/17 04:10:31;;;;;;;;;;;;;;;-144.98;100.00;62585.19;4954333;29;20022;-71
2023/03/17 04:13:34;;;;;;;;;;;;;;;-144.98;100.00;62585.19;4954280;29;19977;-73
2023/03/17 04:16:38;;;;;;;;;;;;;;;-144.98;100.00;62585.19;4951035;29;19948;-73
2023/03/17 04:19:41;;;;;;;;;;;;;;;-144.98;100.00;62585.19;4954097;29;19926;-73
2023/03/17 04:22:44;;;;;;;;;;;;;;;-144.98;100.00;62585.19;4954297;28;19925;-73
2023/03/17 04:25:48;;;;;;;;;;;;;;;-144.98;100.00;62585.19;4954298;29;19926;-73
2023/03/17 04:28:51;;;;;;;;;;;;;;;-144.98;100.00;62585.19;4954083;29;19929;-73
2023/03/17 04:31:54;;;;;;;;;;;;;;;-144.98;100.00;62585.19;4954210;29;20013;-73
2023/03/17 04:34:58;;;;;;;;;;;;;;;-144.98;100.00;62585.19;4954302;29;20096;-73
2023/03/17 04:38:01;;;;;;;;;;;;;;;-144.98;100.00;62585.19;4956168;28;20290;-73
2023/03/17 04:41:05;;;;;;;;;;;;;;;-144.98;100.00;62585.19;4957736;29;19926;-72
2023/03/17 04:44:08;;;;;;;;;;;;;;;-144.98;100.00;62585.19;4957666;29;20015;-72
2023/03/17 04:47:10;;;;;;;;;;;;;;;-144.98;100.00;62585.19;4957435;29;19944;-73
2023/03/17 04:50:17;;;;;;;;;;;;;;;-144.98;100.00;62585.19;4957133;29;20346;-73
2023/03/17 04:53:22;;;;;;;;;;;;;;;-144.98;100.00;62585.19;4934875;29;19982;-72
2023/03/17 04:56:25;;;;;;;;;;;;;;;-144.98;100.00;62585.19;4957473;29;20306;-72
2023/03/17 04:59:28;;;;;;;;;;;;;;;-144.98;100.00;62585.19;4957657;29;19946;-74
2023/03/17 05:02:31;;;;;;;;;;;;;;;-144.98;100.00;62585.19;4957358;29;19925;-72
2023/03/17 05:05:34;;;;;;;;;;;;;;;-144.98;100.00;62585.19;4957396;29;19930;-71
2023/03/17 05:08:37;;;;;;;;;;;;;;;-144.98;100.00;62585.19;4957230;29;20340;-71
2023/03/17 05:11:41;;;;;;;;;;;;;;;-144.98;100.00;62585.19;4957180;29;19925;-71
2023/03/17 05:14:44;;;;;;;;;;;;;;;-144.98;100.00;62585.19;4957506;29;19925;-71
2023/03/17 05:17:47;;;;;;;;;;;;;;;-144.98;100.00;62585.19;4957623;29;19924;-72
2023/03/17 05:20:52;;;;;;;;;;;;;;;-144.98;100.00;62585.19;4957541;29;19943;-72
2023/03/17 05:24:20;;;;;;;;;;;;;;;-144.98;100.00;62585.19;4945627;29;20073;-73
2023/03/17 05:27:55;;;;;;;;;;;;;;;-144.98;100.00;62585.19;4956195;29;19973;-73
2023/03/17 05:30:59;;;;;;;;;;;;;;;-144.98;100.00;62585.19;4955150;29;19925;-73
2023/03/17 05:34:03;;;;;;;;;;;;;;;-144.98;100.00;62585.19;4943236;29;20013;-72
2023/03/17 05:37:06;;;;;;;;;;;;;;;-144.98;100.00;62585.19;4955640;29;19925;-74
2023/03/17 05:40:13;;;;;;;;;;;;;;;-144.98;100.00;62585.19;4945083;29;19926;-73
2023/03/17 05:43:19;;;;;;;;;;;;;;;-144.98;100.00;62585.19;4956646;29;19974;-72
2023/03/17 05:46:22;;;;;;;;;;;;;;;-144.98;100.00;62585.19;4955841;29;20275;-72
2023/03/17 05:49:26;;;;;;;;;;;;;;;-144.98;100.00;62585.19;4931636;29;19929;-72
2023/03/17 05:52:29;;;;;;;;;;;;;;;-144.98;100.00;62585.19;4926592;29;19930;-72
2023/03/17 05:55:58;;;;;;;;;;;;;;;-144.98;100.00;62585.19;4924585;29;20398;-73
2023/03/17 05:59:04;;;;;;;;;;;;;;;-144.98;100.00;62585.19;4917555;29;19968;-70
2023/03/17 06:02:10;;;;;;;;;;;;;;;-144.98;100.00;62585.19;4906657;29;19930;-72
2023/03/17 06:05:13;;;;;;;;;;;;;;;-144.98;100.00;62585.19;4917709;29;19930;-73
2023/03/17 06:08:16;;;;;;;;;;;;;;;-144.98;100.00;62585.19;4917953;29;19979;-73
2023/03/17 06:11:20;;;;;;;;;;;;;;;-144.98;100.00;62585.19;4918137;29;20398;-72
2023/03/17 06:14:23;;;;;;;;;;;;;;;-144.98;100.00;62585.19;4905875;29;19926;-73
2023/03/17 06:17:32;;;;;;;;;;;;;;;-144.98;100.00;62585.19;4917295;29;20008;-73
2023/03/17 06:21:01;;;;;;;;;;;;;;;-144.98;100.00;62585.19;4917808;29;19930;-73
2023/03/17 06:24:04;;;;;;;;;;;;;;;-144.98;100.00;62585.19;4917667;29;19926;-74
2023/03/17 06:27:09;;;;;;;;;;;;;;;-144.98;100.00;62585.19;4918125;29;20292;-75
2023/03/17 06:30:16;;;;;;;;;;;;;;;-144.98;100.00;62585.19;4920519;29;19926;-73
2023/03/17 06:33:27;;;;;;;;;;;;;;;-144.98;100.00;62585.19;4917891;29;19975;-78
2023/03/17 06:40:09;;;;;;;;;;;;;;;-144.98;100.00;62585.19;4917699;29;19941;-78
2023/03/17 06:43:12;;;;;;;;;;;;;;;-144.98;100.00;62585.19;4917708;29;20411;-76
2023/03/17 06:46:23;;;;;;;;;;;;;;;-144.98;100.00;62585.19;4912858;29;20288;-78
2023/03/17 06:49:27;;;;;;;;;;;;;;;-144.98;100.00;62585.19;4912934;29;20320;-78
2023/03/17 06:52:31;;;;;;;;;;;;;;;-144.98;100.00;62585.19;4934130;29;20062;-78
2023/03/17 06:55:34;;;;;;;;;;;;;;;-144.98;100.00;62585.19;4936001;29;19926;-81
2023/03/17 06:58:38;;;;;;;;;;;;;;;-144.98;100.00;62585.19;4936130;29;19982;-75
2023/03/17 07:01:42;;;;;;;;;;;;;;;-144.98;100.00;62585.19;4932826;29;19977;-77
2023/03/17 07:04:46;;;;;;;;;;;;;;;-144.98;100.00;62585.19;4936236;29;19925;-79
2023/03/17 07:07:50;;;;;;;;;;;;;;;-144.98;100.00;62585.19;4925746;29;19934;-78
2023/03/17 07:10:56;;;;;;;;;;;;;;;-144.98;100.00;62585.19;4898111;29;19975;-78
2023/03/17 07:13:59;;;;;;;;;;;;;;;-144.98;100.00;62585.19;4897862;29;19926;-77
2023/03/17 07:17:03;;;;;;;;;;;;;;;-144.98;100.00;62585.19;4898449;29;20436;-78
2023/03/17 07:20:36;;;;;;;;;;;;;;;-144.98;100.00;62585.19;4897675;29;19926;-78
2023/03/17 07:23:38;;;;;;;;;;;;;;;-144.98;100.00;62585.19;4896669;29;20345;-78
2023/03/17 07:26:41;;;;;;;;;;;;;;;-144.98;100.00;62585.19;4897527;29;19926;-79
2023/03/17 07:33:41;;;;;;;;;;;;;;;-144.98;100.00;62585.19;4896700;29;19927;-79
2023/03/17 07:36:44;;;;;;;;;;;;;;;-144.98;100.00;62585.19;4896382;29;19926;-78
2023/03/17 07:39:48;;;;;;;;;;;;;;;-144.98;100.00;62585.19;4897380;29;19930;-79
2023/03/17 07:42:52;;;;;;;;;;;;;;;-144.98;100.00;62585.19;4907692;29;19942;-76
2023/03/17 07:45:55;;;;;;;;;;;;;;;-144.98;100.00;62585.19;4897513;29;20292;-76
2023/03/17 07:48:59;;;;;;;;;;;;;;;-144.98;100.00;62585.19;4894256;29;20324;-79
2023/03/17 07:52:02;;;;;;;;;;;;;;;-144.98;100.00;62585.19;4906815;29;20336;-77
2023/03/17 07:55:12;;;;;;;;;;;;;;;-144.98;100.00;62585.19;4914651;29;19926;-79
2023/03/17 07:58:15;;;;;;;;;;;;;;;-144.98;100.00;62585.19;4914350;29;20399;-75
2023/03/17 08:01:18;;;;;;;;;;;;;;;-144.98;100.00;62585.19;4914375;29;19974;-77
2023/03/17 08:04:21;;;;;;;;;;;;;;;-144.98;100.00;62585.19;4916592;29;19975;-77
2023/03/17 08:07:24;;;;;;;;;;;;;;;-144.98;100.00;62585.19;4916182;29;20391;-77
2023/03/17 08:10:27;;;;;;;;;;;;;;;-144.98;100.00;62585.19;4911757;29;19947;-80
2023/03/17 08:13:31;;;;;;;;;;;;;;;-144.98;100.00;62585.19;4919285;29;19966;-79
2023/03/17 08:16:35;;;;;;;;;;;;;;;-144.98;100.00;62585.19;4908567;29;19978;-79
2023/03/17 08:19:37;;;;;;;;;;;;;;;-144.98;100.00;62585.19;4908465;29;19968;-79
2023/03/17 08:22:40;;;;;;;;;;;;;;;-144.98;100.00;62585.19;4919939;29;19930;-78
2023/03/17 08:25:44;;;;;;;;;;;;;;;-144.98;100.00;62585.19;4919906;29;19926;-80
2023/03/17 08:28:47;;;;;;;;;;;;;;;-144.98;100.00;62585.19;4937331;29;20037;-77
2023/03/17 08:31:50;;;;;;;;;;;;;;;-144.98;100.00;62585.19;4936856;29;20402;-79
2023/03/17 08:34:58;;;;;;;;;;;;;;;-144.98;100.00;62585.19;4938848;29;19926;-78
2023/03/17 08:38:03;;;;;;;;;;;;;;;-144.98;100.00;62585.19;4938834;29;20454;-77
2023/03/17 08:41:07;;;;;;;;;;;;;;;-144.98;100.00;62585.19;4938988;29;19926;-78
2023/03/17 08:44:11;;;;;;;;;;;;;;;-144.98;100.00;62585.19;4938694;29;19988;-76
2023/03/17 08:47:15;;;;;;;;;;;;;;;-144.98;100.00;62585.19;4938568;29;19961;-77
2023/03/17 08:50:20;;;;;;;;;;;;;;;-144.98;100.00;62585.19;4938821;29;19925;-79
2023/03/17 08:53:23;;;;;;;;;;;;;;;-144.98;100.00;62585.19;4938348;29;19929;-79
2023/03/17 08:56:27;;;;;;;;;;;;;;;-144.98;100.00;62585.19;4933601;29;19926;-78
2023/03/17 08:59:30;;;;;;;;;;;;;;;-144.98;100.00;62585.19;4938343;29;20402;-77
2023/03/17 09:02:33;;;;;;;;;;;;;;;-144.98;100.00;62585.19;4938252;29;19966;-79
2023/03/17 09:05:36;;;;;;;;;;;;;;;-144.98;100.00;62585.19;4937207;29;20000;-79
2023/03/17 09:08:43;;;;;;;;;;;;;;;-144.98;100.00;62585.19;4938022;29;19970;-81
2023/03/17 09:11:46;;;;;;;;;;;;;;;-144.98;100.00;62585.19;4938441;29;19926;-78
2023/03/17 09:14:49;;;;;;;;;;;;;;;-144.98;100.00;62585.19;4938058;29;19966;-78
2023/03/17 09:17:52;;;;;;;;;;;;;;;-144.98;100.00;62585.19;4937876;29;19925;-80
2023/03/17 09:20:56;;;;;;;;;;;;;;;-144.98;100.00;62585.19;4926149;29;19925;-78
2023/03/17 09:24:00;;;;;;;;;;;;;;;-144.98;100.00;62585.19;4936784;29;19926;-80
2023/03/17 09:27:03;;;;;;;;;;;;;;;-144.98;100.00;62585.19;4937752;29;19926;-79
2023/03/17 09:30:09;;;;;;;;;;;;;;;-144.98;100.00;62585.19;4937908;29;20348;-78
2023/03/17 09:33:13;;;;;;;;;;;;;;;-144.98;100.00;62585.19;4937503;29;19997;-77
2023/03/17 09:36:16;;;;;;;;;;;;;;;-144.98;100.00;62585.19;4937728;29;20488;-78
2023/03/17 09:39:21;;;;;;;;;;;;;;;-144.98;100.00;62585.19;4936822;29;19926;-78
2023/03/17 09:42:25;;;;;;;;;;;;;;;-144.98;100.00;62585.19;4937591;29;19974;-78
2023/03/17 09:45:38;;;;;;;;;;;;;;;-144.98;100.00;62585.19;4937567;29;20390;-80
2023/03/17 09:49:06;;;;;;;;;;;;;;;-144.98;100.00;62585.19;4925767;29;19930;-79
2023/03/17 09:52:13;;;;;;;;;;;;;;;-144.98;100.00;62585.19;4951491;29;19938;-80
2023/03/17 09:55:29;;;;;;;;;;;;;;;-144.98;100.00;62585.19;4956467;29;19925;-78
2023/03/17 09:58:33;;;;;;;;;;;;;;;-144.98;100.00;62585.19;4956420;29;19929;-77
2023/03/17 10:01:39;;;;;;;;;;;;;;;-144.98;100.00;62585.19;4956359;29;20290;-78
2023/03/17 10:04:43;;;;;;;;;;;;;;;-144.98;100.00;62585.19;4956358;29;19926;-79
2023/03/17 10:08:11;;;;;;;;;;;;;;;-144.98;100.00;62585.19;4956192;29;20301;-81
2023/03/17 10:11:21;;;;;;;;;;;;;;;-144.98;100.00;62585.19;4956213;29;19929;-73
2023/03/17 10:14:37;;;;;;;;;;;;;;;-144.98;100.00;62585.19;4943328;29;19974;-81
2023/03/17 10:17:40;;;;;;;;;;;;;;;-144.98;100.00;62585.19;4943885;29;19924;-81
2023/03/17 10:20:56;;;;;;;;;;;;;;;-144.98;100.00;62585.19;4955458;29;20036;-81
2023/03/17 10:24:00;;;;;;;;;;;;;;;-144.98;100.00;62585.19;4955915;28;20021;-81
2023/03/17 10:27:05;;;;;;;;;;;;;;;-144.98;100.00;62585.19;4944298;29;19973;-80
2023/03/17 10:30:12;;;;;;;;;;;;;;;-144.98;100.00;62585.19;4956398;29;19990;-79
2023/03/17 10:33:15;;;;;;;;;;;;;;;-144.98;100.00;62585.19;4956097;29;19929;-80
2023/03/17 10:36:32;;;;;;;;;;;;;;;-144.98;100.00;62585.19;4954993;28;19930;-80
2023/03/17 10:39:44;;;;;;;;;;;;;;;-144.98;100.00;62585.19;4955723;29;20401;-77
2023/03/17 10:42:53;;;;;;;;;;;;;;;-144.98;100.00;62585.19;4955537;29;19926;-78
2023/03/17 10:46:02;;;;;;;;;;;;;;;-144.98;100.00;62585.19;4954102;29;19925;-80
2023/03/17 10:49:15;;;;;;;;;;;;;;;-144.98;100.00;62585.19;4955514;29;20414;-79
2023/03/17 10:52:21;;;;;;;;;;;;;;;-144.98;100.00;62585.19;4943160;29;19930;-80
2023/03/17 10:55:28;;;;;;;;;;;;;;;-144.98;100.00;62585.19;4943652;29;19926;-80
2023/03/17 10:58:44;;;;;;;;;;;;;;;-144.98;100.00;62585.19;4955486;29;20298;-80
2023/03/17 11:01:52;;;;;;;;;;;;;;;-144.98;100.00;62585.19;4955538;29;20011;-81
2023/03/17 11:05:02;;;;;;;;;;;;;;;-144.98;100.00;62585.19;4955183;29;19969;-81
2023/03/17 11:08:07;;;;;;;;;;;;;;;-144.98;100.00;62585.19;4943011;29;20410;-81
2023/03/17 11:11:28;;;;;;;;;;;;;;;-144.98;100.00;62585.19;4955071;29;19976;-79
2023/03/17 11:14:32;;;;;;;;;;;;;;;-144.98;100.00;62585.19;4955978;29;19925;-80
2023/03/17 11:17:38;;;;;;;;;;;;;;;-144.98;100.00;62585.19;4943290;29;19973;-78
2023/03/17 11:20:46;;;;;;;;;;;;;;;-144.98;100.00;62585.19;4954876;29;20397;-80
2023/03/17 11:23:51;;;;;;;;;;;;;;;-144.98;100.00;62585.19;4954834;28;20017;-78
2023/03/17 11:27:00;;;;;;;;;;;;;;;-144.98;100.00;62585.19;4955053;29;19926;-81
2023/03/17 11:30:13;;;;;;;;;;;;;;;-144.98;100.00;62585.19;4943134;29;19929;-80
2023/03/17 11:33:20;;;;;;;;;;;;;;;-144.98;100.00;62585.19;4954837;29;19925;-80
2023/03/17 11:36:27;;;;;;;;;;;;;;;-144.98;100.00;62585.19;4942785;29;20435;-79
2023/03/17 11:39:45;;;;;;;;;;;;;;;-144.98;100.00;62585.19;4954920;29;20386;-80
2023/03/17 11:42:56;;;;;;;;;;;;;;;-144.98;100.00;62585.19;4954654;29;19925;-81
2023/03/17 11:46:08;;;;;;;;;;;;;;;-144.98;100.00;62585.19;4955254;29;19925;-81
2023/03/17 11:49:27;;;;;;;;;;;;;;;-144.98;100.00;62585.19;4954839;29;20282;-80
2023/03/17 11:52:37;;;;;;;;;;;;;;;-144.98;100.00;62585.19;4954230;29;19981;-81
2023/03/17 11:55:47;;;;;;;;;;;;;;;-144.98;100.00;62585.19;4943039;29;19941;-81
2023/03/17 11:59:08;;;;;;;;;;;;;;;-144.98;100.00;62585.19;4954004;29;19929;-81
2023/03/17 12:02:18;;;;;;;;;;;;;;;-144.98;100.00;62585.19;4954490;29;19925;-81
2023/03/17 12:05:24;;;;;;;;;;;;;;;-144.98;100.00;62585.19;4953427;29;19924;-80
2023/03/17 12:08:28;;;;;;;;;;;;;;;-144.98;100.00;62585.19;4942773;29;19981;-80
2023/03/17 12:11:35;;;;;;;;;;;;;;;-144.98;100.00;62585.19;4953796;29;19936;-79
2023/03/17 12:14:43;;;;;;;;;;;;;;;-144.98;100.00;62585.19;4954691;29;19938;-81
2023/03/17 12:17:56;;;;;;;;;;;;;;;-144.98;100.00;62585.19;4954793;29;19926;-81
2023/03/17 12:21:04;;;;;;;;;;;;;;;-144.98;100.00;62585.19;4954318;29;19981;-81
2023/03/17 12:24:13;;;;;;;;;;;;;;;-144.98;100.00;62585.19;4942119;29;19937;-82
2023/03/17 12:27:26;;;;;;;;;;;;;;;-144.98;100.00;62585.19;4954316;29;19925;-81
2023/03/17 12:30:31;;;;;;;;;;;;;;;-144.98;100.00;62585.19;4942370;29;20013;-81
2023/03/17 12:33:53;;;;;;;;;;;;;;;-144.98;100.00;62585.19;4942601;29;19925;-81
2023/03/17 12:36:56;;;;;;;;;;;;;;;-144.98;100.00;62585.19;4942550;29;19999;-80
2023/03/17 12:40:05;;;;;;;;;;;;;;;-144.98;100.00;62585.19;4954466;29;20425;-82
2023/03/17 12:43:18;;;;;;;;;;;;;;;-144.98;100.00;62585.19;4942578;29;19976;-80
2023/03/17 12:46:29;;;;;;;;;;;;;;;-144.98;100.00;62585.19;4954182;29;19941;-81
2023/03/17 12:49:32;;;;;;;;;;;;;;;-144.98;100.00;62585.19;4953731;29;19929;-82
2023/03/17 12:52:55;;;;;;;;;;;;;;;-144.98;100.00;62585.19;4950361;29;19968;-82
2023/03/17 12:56:10;;;;;;;;;;;;;;;-144.98;100.00;62585.19;4954092;29;20069;-82
2023/03/17 12:59:18;;;;;;;;;;;;;;;-144.98;100.00;62585.19;4956464;28;19934;-83
2023/03/17 13:02:27;;;;;;;;;;;;;;;-144.98;100.00;62585.19;4957600;29;19925;-78
2023/03/17 13:05:31;;;;;;;;;;;;;;;-144.98;100.00;62585.19;4957400;29;20338;-79
2023/03/17 13:08:41;;;;;;;;;;;;;;;-144.98;100.00;62585.19;4957367;29;19970;-80
2023/03/17 13:11:46;;;;;;;;;;;;;;;-144.98;100.00;62585.19;4957363;29;20445;-79
2023/03/17 13:14:50;;;;;;;;;;;;;;;-144.98;100.00;62585.19;4957289;29;19924;-75
2023/03/17 13:18:13;;;;;;;;;;;;;;;-144.98;100.00;62585.19;4957849;29;19925;-80
2023/03/17 13:21:17;;;;;;;;;;;;;;;-144.98;100.00;62585.19;4957171;29;19929;-79
2023/03/17 13:24:22;;;;;;;;;;;;;;;-144.98;100.00;62585.19;4957304;28;19925;-77
2023/03/17 13:27:31;;;;;;;;;;;;;;;-144.98;100.00;62585.19;4952204;29;19934;-77
2023/03/17 13:30:35;;;;;;;;;;;;;;;-144.98;100.00;62585.19;4957295;29;20437;-75
2023/03/17 13:33:50;;;;;;;;;;;;;;;-144.98;100.00;62585.19;4956416;29;20654;-78
2023/03/17 13:37:21;;;;;;;;;;;;;;;-144.98;100.00;62585.19;4943809;29;20417;-78
2023/03/17 13:40:30;;;;;;;;;;;;;;;-144.98;100.00;62585.19;4958263;29;20590;-80
2023/03/17 13:43:36;;;;;;;;;;;;;;;-144.98;100.00;62585.19;4956860;29;19934;-78
2023/03/17 13:46:42;;;;;;;;;;;;;;;-144.98;100.00;62585.19;4944714;29;19929;-77
2023/03/17 13:49:49;;;;;;;;;;;;;;;-144.98;100.00;62585.19;4956570;29;19929;-78
2023/03/17 13:52:56;;;;;;;;;;;;;;;-144.98;100.00;62585.19;4926172;29;19936;-78
2023/03/17 13:56:22;;;;;;;;;;;;;;;-144.98;100.00;62585.19;4925650;29;19969;-77
2023/03/17 13:59:53;;;;;;;;;;;;;;;-144.98;100.00;62585.19;4925337;29;20009;-79
2023/03/17 14:03:02;;;;;;;;;;;;;;;-144.98;100.00;62585.19;4914378;29;20022;-77
2023/03/17 14:06:06;;;;;;;;;;;;;;;-144.98;100.00;62585.19;4936615;29;19926;-78
2023/03/17 14:09:19;;;;;;;;;;;;;;;-144.98;100.00;62585.19;4936989;29;20294;-79
2023/03/17 14:12:41;;;;;;;;;;;;;;;-144.98;100.00;62585.19;4937025;29;19925;-77
2023/03/17 14:16:20;;;;;;;;;;;;;;;-144.98;100.00;62585.19;4936883;29;19926;-76
2023/03/17 14:19:26;;;;;;;;;;;;;;;-144.98;100.00;62585.19;4937032;29;20422;-76
2023/03/17 14:22:31;;;;;;;;;;;;;;;-144.98;100.00;62585.19;4937210;29;19966;-76
2023/03/17 14:25:37;;;;;;;;;;;;;;;-144.98;100.00;62585.19;4936405;29;19941;-77
2023/03/17 14:28:42;;;;;;;;;;;;;;;-144.98;100.00;62585.19;4936858;29;19929;-77
2023/03/17 14:31:51;;;;;;;;;;;;;;;-144.98;100.00;62585.19;4937167;29;19925;-75
2023/03/17 14:34:57;;;;;;;;;;;;;;;-144.98;100.00;62585.19;4936597;29;20430;-76
2023/03/17 14:38:15;;;;;;;;;;;;;;;-144.98;100.00;62585.19;4936526;29;19925;-77
2023/03/17 14:41:28;;;;;;;;;;;;;;;-144.98;100.00;62585.19;4936554;29;19931;-77
2023/03/17 14:44:35;;;;;;;;;;;;;;;-144.98;100.00;62585.19;4936578;29;20286;-78
2023/03/17 14:47:40;;;;;;;;;;;;;;;-144.98;100.00;62585.19;4936656;29;19982;-77
2023/03/17 14:50:53;;;;;;;;;;;;;;;-144.98;100.00;62585.19;4940005;29;19929;-79
2023/03/17 14:53:59;;;;;;;;;;;;;;;-144.98;100.00;62585.19;4954026;29;19946;-79
2023/03/17 14:57:07;;;;;;;;;;;;;;;-144.98;100.00;62585.19;4955543;29;19925;-78
2023/03/17 15:00:17;;;;;;;;;;;;;;;-144.98;100.00;62585.19;4955288;29;19989;-79
2023/03/17 15:03:24;;;;;;;;;;;;;;;-144.98;100.00;62585.19;4955893;29;19926;-77
2023/03/17 15:06:33;;;;;;;;;;;;;;;-144.98;100.00;62585.19;4954330;29;19929;-72
2023/03/17 15:09:38;;;;;;;;;;;;;;;-144.98;100.00;62585.19;4955707;29;19930;-81
2023/03/17 15:12:41;;;;;;;;;;;;;;;-144.98;100.00;62585.19;4955081;29;19941;-78
2023/03/17 15:15:44;;;;;;;;;;;;;;;-144.98;100.00;62585.19;4955100;29;19969;-77
2023/03/17 15:18:54;;;;;;;;;;;;;;;-144.98;100.00;62585.19;4943477;29;20051;-78
2023/03/17 15:22:04;;;;;;;;;;;;;;;-144.98;100.00;62585.19;4954063;28;20006;-77
2023/03/17 15:25:16;;;;;;;;;;;;;;;-144.98;100.00;62585.19;4942911;29;19929;-78
2023/03/17 15:28:22;;;;;;;;;;;;;;;-144.98;100.00;62585.19;4954092;29;20438;-78
2023/03/17 15:31:28;;;;;;;;;;;;;;;-144.98;100.00;62585.19;4943059;29;19925;-80
2023/03/17 15:34:31;;;;;;;;;;;;;;;-144.98;100.00;62585.19;4954867;29;19941;-79
2023/03/17 15:37:34;;;;;;;;;;;;;;;-144.98;100.00;62585.19;4954831;29;20009;-80
2023/03/17 15:40:41;;;;;;;;;;;;;;;-144.98;100.00;62585.19;4954720;29;19925;-81
2023/03/17 15:43:44;;;;;;;;;;;;;;;-144.98;100.00;62585.19;4943111;29;19926;-80